createdAt,value
2022-09-30T00:02:12.287Z,6.14
2022-09-30T00:04:33.799Z,6.26
2022-09-30T00:06:55.342Z,6.26
2022-09-30T00:09:16.939Z,6.36
2022-09-30T00:11:40.143Z,6.11
2022-09-30T00:14:02.431Z,6.08
2022-09-30T00:16:25.661Z,6.15
2022-09-30T00:18:47.397Z,6.18
2022-09-30T00:21:09.933Z,6.16
2022-09-30T00:23:31.478Z,6.20
2022-09-30T00:25:58.860Z,6.22
2022-09-30T00:28:20.451Z,6.13
2022-09-30T00:30:43.116Z,5.95
2022-09-30T00:33:04.559Z,6.04
2022-09-30T00:35:26.046Z,6.09
2022-09-30T00:37:47.663Z,6.07
2022-09-30T00:40:11.627Z,5.93
2022-09-30T00:42:33.073Z,6.04
2022-09-30T00:45:05.916Z,6.02
2022-09-30T00:47:36.553Z,6.06
2022-09-30T00:50:01.778Z,5.93
2022-09-30T00:52:23.841Z,5.83
2022-09-30T00:54:45.773Z,5.73
2022-09-30T00:57:08.759Z,5.91
2022-09-30T00:59:34.928Z,5.85
2022-09-30T01:01:56.572Z,5.80
2022-09-30T01:04:22.362Z,5.75
2022-09-30T01:06:44.441Z,5.67
2022-09-30T01:09:06.302Z,5.57
2022-09-30T01:11:28.978Z,5.55
2022-09-30T01:13:53.796Z,5.60
2022-09-30T01:16:24.402Z,5.66
2022-09-30T01:19:01.858Z,5.69
2022-09-30T01:21:47.991Z,5.65
2022-09-30T01:24:34.469Z,5.54
2022-09-30T01:27:04.651Z,5.46
2022-09-30T01:29:44.313Z,5.49
2022-09-30T01:32:39.590Z,5.53
2022-09-30T01:35:22.256Z,5.58
2022-09-30T01:38:05.676Z,5.65
2022-09-30T01:40:40.724Z,5.62
2022-09-30T01:43:12.888Z,5.63
2022-09-30T01:45:42.828Z,5.64
2022-09-30T01:48:28.633Z,5.63
2022-09-30T01:50:50.048Z,5.57
2022-09-30T01:53:34.972Z,5.34
2022-09-30T01:56:18.655Z,5.29
2022-09-30T01:58:47.563Z,5.36
2022-09-30T02:01:18.206Z,5.40
2022-09-30T02:03:45.924Z,5.34
2022-09-30T02:06:14.219Z,5.38
2022-09-30T02:08:44.140Z,5.44
2022-09-30T02:11:18.896Z,5.43
2022-09-30T02:13:49.799Z,5.42
2022-09-30T02:16:16.324Z,5.34
2022-09-30T02:18:42.249Z,5.15
2022-09-30T02:21:07.425Z,5.23
2022-09-30T02:23:33.092Z,5.26
2022-09-30T02:26:18.147Z,5.33
2022-09-30T02:28:44.224Z,5.33
2022-09-30T02:31:08.556Z,5.23
2022-09-30T02:33:35.324Z,5.25
2022-09-30T02:36:06.002Z,5.30
2022-09-30T02:38:37.496Z,5.27
2022-09-30T02:41:06.627Z,5.33
2022-09-30T02:43:29.404Z,5.34
2022-09-30T02:46:00.143Z,5.36
2022-09-30T02:48:31.971Z,5.34
2022-09-30T02:51:03.999Z,5.07
2022-09-30T02:53:43.572Z,5.00
2022-09-30T02:56:26.423Z,5.08
2022-09-30T02:58:51.423Z,5.11
2022-09-30T03:01:15.391Z,5.08
2022-09-30T03:03:48.473Z,5.00
2022-09-30T03:06:10.924Z,4.92
2022-09-30T03:08:32.564Z,4.97
2022-09-30T03:10:54.143Z,5.01
2022-09-30T03:13:21.792Z,5.05
2022-09-30T03:16:18.912Z,5.02
2022-09-30T03:19:25.334Z,4.98
2022-09-30T03:22:11.537Z,5.01
2022-09-30T03:24:59.463Z,5.05
2022-09-30T03:27:43.070Z,5.05
2022-09-30T03:30:13.708Z,5.07
2022-09-30T03:32:44.595Z,4.97
2022-09-30T03:35:21.368Z,5.00
2022-09-30T03:38:07.344Z,5.01
2022-09-30T03:40:41.564Z,5.05
2022-09-30T03:43:32.688Z,5.06
2022-09-30T03:46:06.956Z,5.05
2022-09-30T03:48:30.444Z,5.00
2022-09-30T03:50:52.969Z,5.05
2022-09-30T03:53:14.623Z,4.93
2022-09-30T03:55:44.915Z,4.84
2022-09-30T03:58:07.577Z,4.80
2022-09-30T04:00:29.271Z,4.79
2022-09-30T04:02:55.797Z,4.76
2022-09-30T04:05:19.151Z,4.82
2022-09-30T04:07:40.703Z,4.82
2022-09-30T04:10:02.408Z,4.86
2022-09-30T04:12:23.875Z,4.87
2022-09-30T04:14:45.348Z,4.85
2022-09-30T04:17:07.232Z,4.86
2022-09-30T04:19:28.857Z,4.75
2022-09-30T04:21:53.705Z,4.69
2022-09-30T04:24:15.176Z,4.67
2022-09-30T04:26:36.720Z,4.71
2022-09-30T04:28:58.804Z,4.43
2022-09-30T04:31:21.410Z,4.48
2022-09-30T04:33:44.718Z,4.55
2022-09-30T04:36:07.105Z,4.59
2022-09-30T04:38:29.190Z,4.63
2022-09-30T04:40:51.689Z,4.69
2022-09-30T04:43:13.271Z,4.78
2022-09-30T04:45:34.766Z,4.74
2022-09-30T04:47:56.426Z,4.76
2022-09-30T04:50:18.192Z,4.68
2022-09-30T04:52:43.627Z,4.66
2022-09-30T04:55:05.671Z,4.60
2022-09-30T04:57:27.283Z,4.56
2022-09-30T04:59:50.024Z,4.59
2022-09-30T05:02:12.877Z,4.63
2022-09-30T05:04:34.408Z,4.62
2022-09-30T05:06:55.913Z,4.53
2022-09-30T05:09:17.424Z,4.63
2022-09-30T05:11:41.596Z,4.61
2022-09-30T05:14:08.801Z,4.50
2022-09-30T05:16:30.350Z,4.52
2022-09-30T05:18:52.035Z,4.59
2022-09-30T05:21:15.796Z,4.48
2022-09-30T05:23:38.256Z,4.57
2022-09-30T05:26:01.489Z,4.62
2022-09-30T05:28:23.093Z,4.60
2022-09-30T05:30:45.425Z,4.55
2022-09-30T05:33:07.285Z,4.47
2022-09-30T05:35:28.782Z,4.45
2022-09-30T05:37:50.287Z,4.51
2022-09-30T05:40:11.785Z,4.46
2022-09-30T05:42:35.957Z,4.29
2022-09-30T05:44:57.431Z,4.27
2022-09-30T05:47:18.943Z,4.38
2022-09-30T05:49:41.764Z,4.43
2022-09-30T05:52:03.307Z,4.42
2022-09-30T05:54:24.822Z,4.50
2022-09-30T05:56:46.305Z,4.52
2022-09-30T05:59:07.894Z,4.37
2022-09-30T06:01:29.479Z,4.51
2022-09-30T06:03:50.958Z,4.62
2022-09-30T06:06:13.375Z,4.64
2022-09-30T06:08:35.061Z,4.68
2022-09-30T06:10:58.767Z,4.61
2022-09-30T06:13:21.502Z,4.57
2022-09-30T06:15:44.044Z,4.65
2022-09-30T06:18:05.754Z,4.71
2022-09-30T06:20:27.331Z,4.75
2022-09-30T06:22:48.862Z,4.83
2022-09-30T06:25:10.866Z,4.91
2022-09-30T06:27:35.636Z,4.95
2022-09-30T06:29:57.945Z,4.90
2022-09-30T06:32:19.680Z,4.99
2022-09-30T06:34:41.139Z,5.05
2022-09-30T06:37:02.882Z,5.12
2022-09-30T06:39:24.444Z,5.23
2022-09-30T06:41:46.810Z,5.26
2022-09-30T06:44:09.472Z,5.32
2022-09-30T06:46:31.642Z,5.35
2022-09-30T06:49:06.562Z,5.41
2022-09-30T06:51:33.339Z,5.49
2022-09-30T06:53:56.248Z,5.54
2022-09-30T06:56:18.346Z,5.62
2022-09-30T06:58:40.433Z,5.63
2022-09-30T07:01:05.370Z,5.76
2022-09-30T07:03:30.380Z,5.82
2022-09-30T07:06:10.214Z,5.86
2022-09-30T07:08:34.323Z,5.96
2022-09-30T07:10:56.171Z,6.06
2022-09-30T07:13:17.649Z,6.06
2022-09-30T07:15:42.132Z,6.16
2022-09-30T07:18:03.692Z,6.21
2022-09-30T07:20:25.544Z,6.26
2022-09-30T07:22:47.628Z,6.34
2022-09-30T07:25:11.320Z,6.35
2022-09-30T07:27:33.948Z,6.38
2022-09-30T07:30:16.301Z,6.40
2022-09-30T07:32:38.129Z,6.39
2022-09-30T07:34:59.645Z,6.53
2022-09-30T07:37:21.732Z,6.55
2022-09-30T07:39:45.411Z,6.47
2022-09-30T07:42:06.903Z,6.53
2022-09-30T07:44:29.356Z,6.59
2022-09-30T07:46:50.813Z,6.70
2022-09-30T07:49:15.281Z,6.73
2022-09-30T07:51:39.824Z,6.79
2022-09-30T07:54:05.972Z,6.90
2022-09-30T07:56:41.031Z,7.03
2022-09-30T07:59:12.387Z,7.12
2022-09-30T08:01:34.427Z,7.28
2022-09-30T08:03:58.712Z,7.50
2022-09-30T08:06:21.029Z,7.63
2022-09-30T08:08:44.240Z,7.70
2022-09-30T08:11:07.579Z,7.80
2022-09-30T08:13:29.119Z,7.86
2022-09-30T08:15:50.628Z,8.06
2022-09-30T08:18:12.114Z,8.17
2022-09-30T08:20:33.611Z,8.32
2022-09-30T08:22:55.617Z,8.48
2022-09-30T08:25:17.174Z,8.61
2022-09-30T08:27:38.949Z,8.87
2022-09-30T08:30:04.213Z,9.05
2022-09-30T08:32:30.668Z,9.12
2022-09-30T08:34:52.107Z,9.33
2022-09-30T08:37:13.597Z,9.41
2022-09-30T08:39:35.099Z,9.62
2022-09-30T08:42:45.745Z,9.86
2022-09-30T08:45:41.024Z,10.10
2022-09-30T08:48:20.699Z,10.19
2022-09-30T08:51:09.902Z,10.33
2022-09-30T08:53:36.306Z,10.42
2022-09-30T08:56:02.489Z,10.72
2022-09-30T08:58:37.183Z,10.94
2022-09-30T09:01:10.248Z,10.89
2022-09-30T09:03:34.161Z,10.79
2022-09-30T09:06:01.607Z,10.87
2022-09-30T09:08:52.400Z,11.31
2022-09-30T09:11:32.615Z,11.68
2022-09-30T09:14:04.425Z,11.93
2022-09-30T09:16:36.267Z,11.85
2022-09-30T09:19:08.461Z,11.81
2022-09-30T09:21:54.906Z,11.91
2022-09-30T09:24:21.181Z,12.05
2022-09-30T09:26:42.671Z,12.11
2022-09-30T09:29:55.772Z,12.27
2022-09-30T09:32:18.981Z,12.49
2022-09-30T09:34:43.305Z,12.51
2022-09-30T09:37:17.508Z,12.42
2022-09-30T09:39:51.116Z,12.58
2022-09-30T09:42:27.634Z,12.62
2022-09-30T09:45:18.132Z,12.77
2022-09-30T09:47:39.774Z,13.01
2022-09-30T09:50:04.146Z,13.09
2022-09-30T09:52:56.339Z,13.25
2022-09-30T09:55:22.128Z,13.57
2022-09-30T09:57:43.607Z,13.62
2022-09-30T10:00:29.898Z,13.53
2022-09-30T10:03:19.180Z,13.69
2022-09-30T10:05:40.894Z,13.71
2022-09-30T10:08:30.959Z,13.74
2022-09-30T10:11:01.573Z,14.05
2022-09-30T10:13:24.264Z,13.98
2022-09-30T10:15:46.514Z,13.93
2022-09-30T10:18:17.853Z,13.93
2022-09-30T10:20:39.392Z,14.33
2022-09-30T10:23:20.062Z,14.28
2022-09-30T10:26:14.847Z,14.24
2022-09-30T10:28:48.003Z,14.40
2022-09-30T10:31:22.410Z,14.48
2022-09-30T10:33:47.034Z,14.54
2022-09-30T10:36:13.338Z,14.56
2022-09-30T10:38:37.180Z,14.79
2022-09-30T10:40:59.400Z,15.09
2022-09-30T10:43:27.039Z,15.16
2022-09-30T10:46:01.508Z,15.30
2022-09-30T10:48:35.145Z,15.44
2022-09-30T10:50:57.096Z,15.60
2022-09-30T10:53:25.696Z,15.82
2022-09-30T10:55:47.389Z,16.00
2022-09-30T10:58:27.032Z,16.18
2022-09-30T11:00:52.787Z,16.15
2022-09-30T11:03:18.893Z,16.33
2022-09-30T11:05:43.448Z,16.30
2022-09-30T11:08:14.833Z,16.23
2022-09-30T11:10:45.584Z,16.30
2022-09-30T11:13:17.534Z,16.50
2022-09-30T11:15:48.481Z,16.81
2022-09-30T11:18:23.768Z,17.03
2022-09-30T11:20:51.198Z,17.18
2022-09-30T11:23:19.561Z,17.48
2022-09-30T11:25:53.045Z,17.63
2022-09-30T11:28:20.596Z,17.63
2022-09-30T11:31:04.920Z,17.81
2022-09-30T11:33:50.806Z,17.79
2022-09-30T11:36:27.888Z,17.80
2022-09-30T11:39:27.823Z,17.70
2022-09-30T11:42:01.205Z,17.86
2022-09-30T11:44:36.912Z,17.95
2022-09-30T11:47:35.520Z,17.98
2022-09-30T11:50:06.895Z,18.31
2022-09-30T11:52:56.472Z,18.54
2022-09-30T11:55:23.802Z,18.39
2022-09-30T11:57:56.458Z,18.47
2022-09-30T12:00:19.504Z,18.53
2022-09-30T12:02:48.021Z,18.76
2022-09-30T12:05:20.207Z,18.99
2022-09-30T12:08:00.676Z,18.96
2022-09-30T12:10:37.446Z,18.90
2022-09-30T12:13:08.884Z,18.40
2022-09-30T12:15:31.497Z,17.96
2022-09-30T12:17:59.352Z,18.10
2022-09-30T12:20:32.923Z,17.75
2022-09-30T12:23:01.268Z,17.65
2022-09-30T12:25:31.257Z,17.56
2022-09-30T12:28:28.538Z,17.39
2022-09-30T12:31:02.033Z,17.35
2022-09-30T12:33:58.112Z,17.58
2022-09-30T12:36:43.392Z,17.93
2022-09-30T12:39:26.448Z,17.96
2022-09-30T12:42:12.002Z,18.18
2022-09-30T12:45:05.304Z,18.62
2022-09-30T12:47:46.637Z,18.25
2022-09-30T12:50:10.072Z,18.29
2022-09-30T12:52:35.309Z,18.27
2022-09-30T12:55:02.491Z,17.85
2022-09-30T12:57:28.331Z,17.69
2022-09-30T13:00:20.706Z,17.73
2022-09-30T13:02:47.155Z,17.42
2022-09-30T13:05:41.065Z,17.47
2022-09-30T13:08:05.312Z,17.20
2022-09-30T13:10:30.631Z,17.25
2022-09-30T13:13:25.853Z,17.15
2022-09-30T13:15:47.570Z,16.80
2022-09-30T13:18:21.258Z,16.91
2022-09-30T13:20:57.914Z,16.87
2022-09-30T13:23:38.023Z,16.81
2022-09-30T13:25:59.526Z,16.96
2022-09-30T13:28:21.051Z,16.94
2022-09-30T13:30:45.069Z,17.09
2022-09-30T13:33:31.619Z,17.07
2022-09-30T13:35:58.729Z,17.13
2022-09-30T13:38:33.336Z,17.43
2022-09-30T13:41:02.901Z,17.54
2022-09-30T13:43:50.917Z,17.69
2022-09-30T13:46:43.100Z,17.86
2022-09-30T13:49:12.276Z,17.98
2022-09-30T13:51:35.069Z,18.07
2022-09-30T13:54:03.705Z,17.88
2022-09-30T13:56:29.833Z,18.34
2022-09-30T13:59:16.288Z,18.13
2022-09-30T14:02:00.796Z,18.45
2022-09-30T14:04:37.184Z,18.68
2022-09-30T14:07:04.377Z,19.11
2022-09-30T14:09:53.838Z,19.10
2022-09-30T14:12:27.300Z,19.26
2022-09-30T14:15:04.175Z,19.21
2022-09-30T14:17:32.415Z,19.24
2022-09-30T14:20:20.072Z,19.20
2022-09-30T14:22:41.905Z,18.91
2022-09-30T14:25:04.915Z,18.83
2022-09-30T14:27:27.000Z,18.75
2022-09-30T14:30:00.430Z,18.98
2022-09-30T14:32:34.062Z,18.88
2022-09-30T14:34:55.994Z,19.07
2022-09-30T14:37:30.953Z,19.16
2022-09-30T14:39:52.676Z,18.87
2022-09-30T14:42:25.444Z,19.22
2022-09-30T14:44:47.289Z,19.44
2022-09-30T14:47:14.309Z,19.61
2022-09-30T14:49:36.553Z,19.99
2022-09-30T14:52:00.582Z,20.25
2022-09-30T14:54:26.523Z,20.26
2022-09-30T14:56:49.699Z,19.65
2022-09-30T14:59:19.463Z,19.26
2022-09-30T15:01:41.443Z,18.56
2022-09-30T15:04:04.487Z,18.54
2022-09-30T15:06:32.305Z,18.57
2022-09-30T15:09:02.148Z,18.77
2022-09-30T15:11:28.240Z,18.67
2022-09-30T15:13:53.440Z,18.45
2022-09-30T15:16:29.789Z,18.47
2022-09-30T15:18:53.755Z,18.21
2022-09-30T15:21:16.847Z,17.80
2022-09-30T15:23:42.328Z,17.64
2022-09-30T15:26:03.930Z,17.60
2022-09-30T15:28:25.921Z,17.39
2022-09-30T15:30:47.565Z,17.39
2022-09-30T15:33:17.925Z,17.17
2022-09-30T15:35:39.419Z,17.25
2022-09-30T15:38:18.438Z,17.19
2022-09-30T15:40:49.982Z,17.12
2022-09-30T15:43:16.464Z,17.20
2022-09-30T15:45:44.002Z,17.02
2022-09-30T15:48:08.064Z,17.13
2022-09-30T15:50:41.394Z,17.05
2022-09-30T15:53:15.463Z,17.07
2022-09-30T15:55:43.097Z,16.98
2022-09-30T15:58:05.609Z,17.07
2022-09-30T16:00:35.275Z,16.97
2022-09-30T16:03:26.086Z,16.93
2022-09-30T16:05:53.780Z,16.63
2022-09-30T16:08:31.659Z,16.57
2022-09-30T16:10:55.759Z,16.44
2022-09-30T16:13:17.348Z,16.42
2022-09-30T16:15:40.556Z,16.48
2022-09-30T16:18:02.210Z,16.45
2022-09-30T16:20:25.439Z,16.33
2022-09-30T16:22:46.872Z,16.35
2022-09-30T16:25:33.564Z,16.37
2022-09-30T16:28:00.847Z,16.47
2022-09-30T16:30:22.371Z,16.37
2022-09-30T16:32:47.563Z,16.45
2022-09-30T16:35:35.566Z,17.11
2022-09-30T16:38:05.631Z,17.77
2022-09-30T16:40:28.892Z,18.26
2022-09-30T16:42:51.443Z,18.54
2022-09-30T16:45:15.026Z,17.95
2022-09-30T16:47:36.511Z,17.65
2022-09-30T16:49:58.855Z,17.53
2022-09-30T16:52:20.337Z,17.40
2022-09-30T16:54:42.799Z,17.26
2022-09-30T16:57:04.556Z,16.90
2022-09-30T16:59:26.060Z,16.84
2022-09-30T17:01:47.571Z,16.68
2022-09-30T17:04:12.968Z,16.57
2022-09-30T17:06:37.235Z,16.47
2022-09-30T17:09:02.005Z,16.32
2022-09-30T17:11:29.540Z,16.21
2022-09-30T17:13:51.012Z,16.06
2022-09-30T17:16:12.965Z,15.92
2022-09-30T17:18:34.460Z,15.77
2022-09-30T17:20:56.546Z,15.64
2022-09-30T17:23:20.460Z,15.53
2022-09-30T17:25:42.872Z,15.33
2022-09-30T17:28:06.007Z,15.22
2022-09-30T17:30:27.532Z,15.21
2022-09-30T17:32:49.081Z,15.12
2022-09-30T17:35:11.257Z,14.98
2022-09-30T17:37:32.864Z,14.81
2022-09-30T17:39:54.394Z,14.62
2022-09-30T17:42:35.303Z,14.63
2022-09-30T17:44:57.461Z,14.42
2022-09-30T17:47:18.968Z,14.28
2022-09-30T17:49:40.457Z,14.09
2022-09-30T17:52:02.370Z,13.99
2022-09-30T17:54:23.960Z,13.84
2022-09-30T17:56:45.434Z,13.86
2022-09-30T17:59:06.957Z,13.94
2022-09-30T18:01:29.860Z,13.77
2022-09-30T18:03:53.483Z,13.66
2022-09-30T18:06:15.009Z,13.44
2022-09-30T18:08:36.680Z,13.35
2022-09-30T18:10:58.207Z,13.27
2022-09-30T18:13:19.831Z,13.23
2022-09-30T18:15:41.618Z,13.19
2022-09-30T18:18:03.137Z,13.15
2022-09-30T18:20:25.641Z,13.06
2022-09-30T18:22:47.358Z,13.01
2022-09-30T18:25:21.288Z,12.98
2022-09-30T18:27:42.845Z,12.92
2022-09-30T18:30:05.835Z,12.80
2022-09-30T18:32:28.619Z,12.73
2022-09-30T18:34:50.159Z,12.71
2022-09-30T18:37:11.674Z,12.59
2022-09-30T18:39:38.082Z,12.58
2022-09-30T18:42:00.496Z,12.54
2022-09-30T18:44:21.962Z,12.33
2022-09-30T18:46:43.455Z,12.26
2022-09-30T18:49:05.717Z,12.06
2022-09-30T18:51:27.240Z,12.05
2022-09-30T18:53:57.820Z,12.02
2022-09-30T18:56:21.743Z,12.01
2022-09-30T18:58:43.311Z,11.96
2022-09-30T19:01:05.818Z,11.89
2022-09-30T19:03:31.061Z,11.82
2022-09-30T19:05:52.582Z,11.58
2022-09-30T19:08:14.153Z,11.51
2022-09-30T19:10:40.148Z,11.51
2022-09-30T19:13:01.636Z,11.52
2022-09-30T19:15:23.606Z,11.55
2022-09-30T19:17:45.443Z,11.47
2022-09-30T19:20:07.636Z,11.41
2022-09-30T19:22:29.726Z,11.24
2022-09-30T19:24:51.165Z,11.19
2022-09-30T19:27:12.944Z,11.06
2022-09-30T19:29:34.414Z,11.10
2022-09-30T19:31:57.473Z,11.04
2022-09-30T19:34:29.862Z,10.95
2022-09-30T19:36:56.315Z,10.99
2022-09-30T19:39:18.057Z,10.97
2022-09-30T19:41:39.900Z,10.93
2022-09-30T19:44:02.019Z,10.81
2022-09-30T19:46:25.022Z,10.77
2022-09-30T19:48:46.525Z,10.74
2022-09-30T19:51:11.494Z,10.65
2022-09-30T19:53:41.644Z,10.50
2022-09-30T19:56:07.252Z,10.56
2022-09-30T19:58:33.673Z,10.48
2022-09-30T20:00:57.833Z,10.31
2022-09-30T20:03:19.285Z,10.15
2022-09-30T20:05:43.973Z,10.20
2022-09-30T20:08:05.473Z,10.15
2022-09-30T20:10:26.963Z,10.14
2022-09-30T20:12:48.448Z,10.16
2022-09-30T20:15:29.018Z,10.06
2022-09-30T20:17:50.497Z,10.02
2022-09-30T20:20:30.299Z,10.03
2022-09-30T20:22:52.558Z,10.01
2022-09-30T20:25:14.060Z,10.01
2022-09-30T20:27:35.534Z,9.91
2022-09-30T20:29:56.992Z,9.83
2022-09-30T20:32:18.507Z,9.38
2022-09-30T20:34:41.925Z,9.56
2022-09-30T20:37:03.404Z,9.49
2022-09-30T20:39:24.896Z,9.51
2022-09-30T20:41:47.246Z,9.56
2022-09-30T20:44:12.042Z,9.39
2022-09-30T20:46:34.498Z,9.23
2022-09-30T20:48:55.978Z,9.20
2022-09-30T20:51:19.644Z,9.32
2022-09-30T20:53:44.491Z,9.29
2022-09-30T20:56:12.040Z,9.32
2022-09-30T20:58:34.222Z,9.25
2022-09-30T21:01:14.104Z,9.32
2022-09-30T21:03:37.645Z,9.27
2022-09-30T21:05:59.486Z,9.22
2022-09-30T21:08:20.965Z,9.04
2022-09-30T21:10:42.531Z,9.03
2022-09-30T21:13:08.911Z,9.07
2022-09-30T21:15:31.284Z,9.12
2022-09-30T21:17:54.811Z,8.94
2022-09-30T21:20:16.260Z,8.94
2022-09-30T21:22:38.700Z,8.92
2022-09-30T21:25:00.204Z,8.91
2022-09-30T21:27:22.328Z,8.87
2022-09-30T21:29:43.886Z,8.93
2022-09-30T21:32:05.531Z,8.91
2022-09-30T21:34:27.151Z,8.67
2022-09-30T21:36:49.266Z,8.76
2022-09-30T21:39:11.548Z,8.72
2022-09-30T21:41:34.646Z,8.58
2022-09-30T21:43:56.380Z,8.67
2022-09-30T21:46:18.668Z,8.69
2022-09-30T21:48:40.811Z,8.66
2022-09-30T21:51:04.363Z,8.72
2022-09-30T21:53:27.361Z,8.77
2022-09-30T21:55:49.247Z,8.75
2022-09-30T21:58:10.695Z,8.66
2022-09-30T22:00:32.226Z,8.62
2022-09-30T22:02:53.704Z,8.70
2022-09-30T22:05:20.502Z,8.72
2022-09-30T22:07:42.262Z,8.80
2022-09-30T22:10:04.239Z,8.67
2022-09-30T22:12:25.732Z,8.62
2022-09-30T22:14:47.187Z,8.65
2022-09-30T22:17:10.091Z,8.48
2022-09-30T22:19:31.626Z,8.58
2022-09-30T22:21:53.136Z,8.66
2022-09-30T22:24:14.564Z,8.60
2022-09-30T22:26:37.209Z,8.60
2022-09-30T22:29:01.573Z,8.62
2022-09-30T22:31:26.705Z,8.59
2022-09-30T22:34:08.789Z,8.48
2022-09-30T22:36:49.099Z,8.22
2022-09-30T22:39:11.291Z,7.98
2022-09-30T22:41:33.735Z,8.15
2022-09-30T22:43:55.709Z,8.24
2022-09-30T22:46:17.212Z,8.30
2022-09-30T22:48:38.728Z,8.33
2022-09-30T22:51:00.765Z,8.23
2022-09-30T22:53:22.214Z,8.26
2022-09-30T22:55:43.736Z,8.30
2022-09-30T22:58:05.191Z,8.34
2022-09-30T23:00:26.781Z,8.21
2022-09-30T23:02:52.848Z,8.27
2022-09-30T23:05:15.451Z,8.21
2022-09-30T23:07:36.939Z,8.19
2022-09-30T23:09:58.395Z,8.10
2022-09-30T23:12:20.299Z,8.02
2022-09-30T23:14:41.980Z,8.01
2022-09-30T23:17:03.427Z,8.00
2022-09-30T23:19:24.965Z,7.79
2022-09-30T23:21:46.851Z,7.81
2022-09-30T23:24:08.645Z,7.83
2022-09-30T23:26:31.138Z,7.67
2022-09-30T23:29:13.713Z,7.77
2022-09-30T23:31:35.529Z,7.80
2022-09-30T23:33:59.821Z,7.67
2022-09-30T23:36:29.299Z,7.65
2022-09-30T23:38:50.772Z,7.52
2022-09-30T23:41:13.755Z,7.63
2022-09-30T23:43:35.583Z,7.75
2022-09-30T23:45:57.807Z,7.77
2022-09-30T23:48:19.316Z,7.85
2022-09-30T23:50:41.062Z,7.93
2022-09-30T23:53:02.558Z,7.72
2022-09-30T23:55:27.808Z,7.69
2022-09-30T23:57:49.378Z,7.60
